sensor_id;sensor_type;location;lat;lon;timestamp;P1;durP1;ratioP1;P2;durP2;ratioP2
9445;SDS011;4761;49.490;10.908;2022-07-06T00:01:44;1.10;;;0.90;;
9445;SDS011;4761;49.490;10.908;2022-07-06T00:04:10;1.02;;;0.98;;
9445;SDS011;4761;49.490;10.908;2022-07-06T00:06:35;1.30;;;1.20;;
9445;SDS011;4761;49.490;10.908;2022-07-06T00:09:01;1.30;;;1.10;;
9445;SDS011;4761;49.490;10.908;2022-07-06T00:11:28;0.95;;;0.95;;
9445;SDS011;4761;49.490;10.908;2022-07-06T00:13:54;1.13;;;1.02;;
9445;SDS011;4761;49.490;10.908;2022-07-06T00:16:21;2.80;;;1.23;;
9445;SDS011;4761;49.490;10.908;2022-07-06T00:18:47;1.35;;;1.25;;
9445;SDS011;4761;49.490;10.908;2022-07-06T00:21:13;1.63;;;1.10;;
9445;SDS011;4761;49.490;10.908;2022-07-06T00:23:38;1.10;;;1.00;;
9445;SDS011;4761;49.490;10.908;2022-07-06T00:26:04;1.63;;;1.20;;
9445;SDS011;4761;49.490;10.908;2022-07-06T00:28:30;1.40;;;1.20;;
9445;SDS011;4761;49.490;10.908;2022-07-06T00:30:56;1.83;;;1.20;;
9445;SDS011;4761;49.490;10.908;2022-07-06T00:33:22;1.30;;;1.20;;
9445;SDS011;4761;49.490;10.908;2022-07-06T00:35:48;1.10;;;1.00;;
9445;SDS011;4761;49.490;10.908;2022-07-06T00:38:14;1.75;;;1.20;;
9445;SDS011;4761;49.490;10.908;2022-07-06T00:40:40;1.15;;;1.00;;
9445;SDS011;4761;49.490;10.908;2022-07-06T00:43:05;1.27;;;1.17;;
9445;SDS011;4761;49.490;10.908;2022-07-06T00:45:31;1.30;;;1.20;;
9445;SDS011;4761;49.490;10.908;2022-07-06T00:47:56;1.75;;;1.33;;
9445;SDS011;4761;49.490;10.908;2022-07-06T00:50:22;1.38;;;1.00;;
9445;SDS011;4761;49.490;10.908;2022-07-06T00:52:49;2.95;;;1.30;;
9445;SDS011;4761;49.490;10.908;2022-07-06T00:55:17;1.15;;;1.05;;
9445;SDS011;4761;49.490;10.908;2022-07-06T00:57:44;1.27;;;1.17;;
9445;SDS011;4761;49.490;10.908;2022-07-06T01:00:11;1.63;;;1.33;;
9445;SDS011;4761;49.490;10.908;2022-07-06T01:02:39;1.38;;;1.20;;
9445;SDS011;4761;49.490;10.908;2022-07-06T01:05:05;1.10;;;1.00;;
9445;SDS011;4761;49.490;10.908;2022-07-06T01:07:32;1.13;;;1.05;;
9445;SDS011;4761;49.490;10.908;2022-07-06T01:09:58;1.20;;;1.10;;
9445;SDS011;4761;49.490;10.908;2022-07-06T01:12:24;1.30;;;1.20;;
9445;SDS011;4761;49.490;10.908;2022-07-06T01:14:50;1.70;;;1.17;;
9445;SDS011;4761;49.490;10.908;2022-07-06T01:17:16;1.95;;;1.30;;
9445;SDS011;4761;49.490;10.908;2022-07-06T01:19:42;2.10;;;1.00;;
9445;SDS011;4761;49.490;10.908;2022-07-06T01:22:09;1.00;;;1.00;;
9445;SDS011;4761;49.490;10.908;2022-07-06T01:24:35;2.15;;;1.10;;
9445;SDS011;4761;49.490;10.908;2022-07-06T01:27:01;1.20;;;1.08;;
9445;SDS011;4761;49.490;10.908;2022-07-06T01:29:28;0.98;;;0.98;;
9445;SDS011;4761;49.490;10.908;2022-07-06T01:31:54;1.50;;;1.20;;
9445;SDS011;4761;49.490;10.908;2022-07-06T01:34:20;1.70;;;1.10;;
9445;SDS011;4761;49.490;10.908;2022-07-06T01:36:46;1.20;;;1.10;;
9445;SDS011;4761;49.490;10.908;2022-07-06T01:39:12;1.30;;;1.20;;
9445;SDS011;4761;49.490;10.908;2022-07-06T01:41:37;1.10;;;1.00;;
9445;SDS011;4761;49.490;10.908;2022-07-06T01:44:03;1.38;;;1.20;;
9445;SDS011;4761;49.490;10.908;2022-07-06T01:46:29;2.05;;;1.27;;
9445;SDS011;4761;49.490;10.908;2022-07-06T01:48:55;1.80;;;1.20;;
9445;SDS011;4761;49.490;10.908;2022-07-06T01:51:21;1.10;;;1.02;;
9445;SDS011;4761;49.490;10.908;2022-07-06T01:53:47;1.00;;;1.00;;
9445;SDS011;4761;49.490;10.908;2022-07-06T01:56:13;2.90;;;1.40;;
9445;SDS011;4761;49.490;10.908;2022-07-06T01:58:39;1.23;;;1.13;;
9445;SDS011;4761;49.490;10.908;2022-07-06T02:01:12;1.27;;;1.10;;
9445;SDS011;4761;49.490;10.908;2022-07-06T02:03:39;1.50;;;1.30;;
9445;SDS011;4761;49.490;10.908;2022-07-06T02:06:05;1.10;;;1.00;;
9445;SDS011;4761;49.490;10.908;2022-07-06T02:08:32;1.45;;;1.25;;
9445;SDS011;4761;49.490;10.908;2022-07-06T02:10:58;1.33;;;1.10;;
9445;SDS011;4761;49.490;10.908;2022-07-06T02:13:24;1.10;;;1.10;;
9445;SDS011;4761;49.490;10.908;2022-07-06T02:15:50;1.42;;;1.20;;
9445;SDS011;4761;49.490;10.908;2022-07-06T02:18:15;1.40;;;1.30;;
9445;SDS011;4761;49.490;10.908;2022-07-06T02:20:41;1.38;;;1.00;;
9445;SDS011;4761;49.490;10.908;2022-07-06T02:23:06;1.48;;;1.20;;
9445;SDS011;4761;49.490;10.908;2022-07-06T02:25:32;1.05;;;0.95;;
9445;SDS011;4761;49.490;10.908;2022-07-06T02:27:58;0.95;;;0.95;;
9445;SDS011;4761;49.490;10.908;2022-07-06T02:30:23;1.20;;;1.10;;
9445;SDS011;4761;49.490;10.908;2022-07-06T02:32:49;1.77;;;1.27;;
9445;SDS011;4761;49.490;10.908;2022-07-06T02:35:14;1.30;;;1.20;;
9445;SDS011;4761;49.490;10.908;2022-07-06T02:37:40;1.20;;;1.10;;
9445;SDS011;4761;49.490;10.908;2022-07-06T02:40:05;1.20;;;1.20;;
9445;SDS011;4761;49.490;10.908;2022-07-06T02:42:31;2.15;;;1.20;;
9445;SDS011;4761;49.490;10.908;2022-07-06T02:44:57;1.20;;;1.20;;
9445;SDS011;4761;49.490;10.908;2022-07-06T02:47:22;1.42;;;1.20;;
9445;SDS011;4761;49.490;10.908;2022-07-06T02:49:48;1.30;;;1.20;;
9445;SDS011;4761;49.490;10.908;2022-07-06T02:52:14;2.75;;;1.42;;
9445;SDS011;4761;49.490;10.908;2022-07-06T02:54:39;1.38;;;1.20;;
9445;SDS011;4761;49.490;10.908;2022-07-06T02:57:05;1.35;;;1.10;;
9445;SDS011;4761;49.490;10.908;2022-07-06T02:59:30;1.42;;;1.33;;
9445;SDS011;4761;49.490;10.908;2022-07-06T03:01:56;1.25;;;1.15;;
9445;SDS011;4761;49.490;10.908;2022-07-06T03:04:21;1.35;;;1.02;;
9445;SDS011;4761;49.490;10.908;2022-07-06T03:06:47;1.40;;;1.30;;
9445;SDS011;4761;49.490;10.908;2022-07-06T03:09:12;1.40;;;1.00;;
9445;SDS011;4761;49.490;10.908;2022-07-06T03:11:38;1.33;;;1.23;;
9445;SDS011;4761;49.490;10.908;2022-07-06T03:14:04;1.08;;;1.02;;
9445;SDS011;4761;49.490;10.908;2022-07-06T03:16:30;1.33;;;1.23;;
9445;SDS011;4761;49.490;10.908;2022-07-06T03:18:55;1.40;;;1.15;;
9445;SDS011;4761;49.490;10.908;2022-07-06T03:21:21;1.27;;;1.17;;
9445;SDS011;4761;49.490;10.908;2022-07-06T03:23:47;0.93;;;0.93;;
9445;SDS011;4761;49.490;10.908;2022-07-06T03:26:12;1.20;;;1.13;;
9445;SDS011;4761;49.490;10.908;2022-07-06T03:28:38;1.30;;;1.20;;
9445;SDS011;4761;49.490;10.908;2022-07-06T03:31:03;1.30;;;1.20;;
9445;SDS011;4761;49.490;10.908;2022-07-06T03:33:29;1.75;;;1.05;;
9445;SDS011;4761;49.490;10.908;2022-07-06T03:35:55;0.98;;;0.98;;
9445;SDS011;4761;49.490;10.908;2022-07-06T03:38:20;1.88;;;1.20;;
9445;SDS011;4761;49.490;10.908;2022-07-06T03:40:46;1.40;;;1.30;;
9445;SDS011;4761;49.490;10.908;2022-07-06T03:43:11;1.10;;;1.00;;
9445;SDS011;4761;49.490;10.908;2022-07-06T03:45:37;1.35;;;1.10;;
9445;SDS011;4761;49.490;10.908;2022-07-06T03:48:03;1.13;;;1.02;;
9445;SDS011;4761;49.490;10.908;2022-07-06T03:50:29;1.23;;;1.20;;
9445;SDS011;4761;49.490;10.908;2022-07-06T03:52:55;1.20;;;1.10;;
9445;SDS011;4761;49.490;10.908;2022-07-06T03:55:20;1.20;;;1.10;;
9445;SDS011;4761;49.490;10.908;2022-07-06T03:57:46;1.10;;;1.00;;
9445;SDS011;4761;49.490;10.908;2022-07-06T04:00:12;1.08;;;1.00;;
9445;SDS011;4761;49.490;10.908;2022-07-06T04:02:38;1.65;;;1.33;;
9445;SDS011;4761;49.490;10.908;2022-07-06T04:05:03;2.00;;;1.27;;
9445;SDS011;4761;49.490;10.908;2022-07-06T04:07:29;1.63;;;1.30;;
9445;SDS011;4761;49.490;10.908;2022-07-06T04:09:55;1.20;;;1.10;;
9445;SDS011;4761;49.490;10.908;2022-07-06T04:12:20;1.20;;;1.10;;
9445;SDS011;4761;49.490;10.908;2022-07-06T04:14:46;1.50;;;1.20;;
9445;SDS011;4761;49.490;10.908;2022-07-06T04:17:11;1.50;;;1.20;;
9445;SDS011;4761;49.490;10.908;2022-07-06T04:19:55;2.67;;;1.30;;
9445;SDS011;4761;49.490;10.908;2022-07-06T04:22:21;1.33;;;1.23;;
9445;SDS011;4761;49.490;10.908;2022-07-06T04:24:46;1.30;;;1.20;;
9445;SDS011;4761;49.490;10.908;2022-07-06T04:27:12;1.55;;;1.30;;
9445;SDS011;4761;49.490;10.908;2022-07-06T04:29:37;1.67;;;1.30;;
9445;SDS011;4761;49.490;10.908;2022-07-06T04:32:03;1.30;;;1.20;;
9445;SDS011;4761;49.490;10.908;2022-07-06T04:34:29;2.03;;;1.27;;
9445;SDS011;4761;49.490;10.908;2022-07-06T04:36:55;1.30;;;1.20;;
9445;SDS011;4761;49.490;10.908;2022-07-06T04:39:20;1.25;;;1.15;;
9445;SDS011;4761;49.490;10.908;2022-07-06T04:41:46;1.17;;;1.10;;
9445;SDS011;4761;49.490;10.908;2022-07-06T04:44:11;1.40;;;1.20;;
9445;SDS011;4761;49.490;10.908;2022-07-06T04:46:37;2.05;;;1.40;;
9445;SDS011;4761;49.490;10.908;2022-07-06T04:49:02;1.63;;;1.20;;
9445;SDS011;4761;49.490;10.908;2022-07-06T04:51:28;1.23;;;1.20;;
9445;SDS011;4761;49.490;10.908;2022-07-06T04:53:53;1.83;;;1.40;;
9445;SDS011;4761;49.490;10.908;2022-07-06T04:56:19;1.45;;;1.20;;
9445;SDS011;4761;49.490;10.908;2022-07-06T04:58:44;1.27;;;1.17;;
9445;SDS011;4761;49.490;10.908;2022-07-06T05:01:10;1.40;;;1.30;;
9445;SDS011;4761;49.490;10.908;2022-07-06T05:03:35;1.08;;;0.95;;
9445;SDS011;4761;49.490;10.908;2022-07-06T05:06:04;1.80;;;1.33;;
9445;SDS011;4761;49.490;10.908;2022-07-06T05:08:30;2.42;;;1.50;;
9445;SDS011;4761;49.490;10.908;2022-07-06T05:10:56;1.27;;;1.17;;
9445;SDS011;4761;49.490;10.908;2022-07-06T05:13:21;1.30;;;1.20;;
9445;SDS011;4761;49.490;10.908;2022-07-06T05:15:47;1.80;;;1.50;;
9445;SDS011;4761;49.490;10.908;2022-07-06T05:18:12;1.38;;;1.20;;
9445;SDS011;4761;49.490;10.908;2022-07-06T05:20:38;2.65;;;1.58;;
9445;SDS011;4761;49.490;10.908;2022-07-06T05:23:04;1.63;;;1.20;;
9445;SDS011;4761;49.490;10.908;2022-07-06T05:25:29;1.20;;;1.10;;
9445;SDS011;4761;49.490;10.908;2022-07-06T05:27:56;1.42;;;1.33;;
9445;SDS011;4761;49.490;10.908;2022-07-06T05:30:22;1.13;;;1.02;;
9445;SDS011;4761;49.490;10.908;2022-07-06T05:32:47;2.33;;;1.33;;
9445;SDS011;4761;49.490;10.908;2022-07-06T05:35:13;1.80;;;1.23;;
9445;SDS011;4761;49.490;10.908;2022-07-06T05:37:38;1.35;;;1.23;;
9445;SDS011;4761;49.490;10.908;2022-07-06T05:40:04;1.40;;;1.23;;
9445;SDS011;4761;49.490;10.908;2022-07-06T05:42:30;1.23;;;1.13;;
9445;SDS011;4761;49.490;10.908;2022-07-06T05:44:55;1.40;;;1.25;;
9445;SDS011;4761;49.490;10.908;2022-07-06T05:47:21;1.23;;;1.13;;
9445;SDS011;4761;49.490;10.908;2022-07-06T05:50:06;1.30;;;1.20;;
9445;SDS011;4761;49.490;10.908;2022-07-06T05:52:38;1.98;;;1.30;;
9445;SDS011;4761;49.490;10.908;2022-07-06T05:55:04;1.75;;;1.30;;
9445;SDS011;4761;49.490;10.908;2022-07-06T05:57:30;1.58;;;1.30;;
9445;SDS011;4761;49.490;10.908;2022-07-06T05:59:56;1.02;;;0.98;;
9445;SDS011;4761;49.490;10.908;2022-07-06T06:02:21;2.05;;;1.25;;
9445;SDS011;4761;49.490;10.908;2022-07-06T06:04:47;1.13;;;1.02;;
9445;SDS011;4761;49.490;10.908;2022-07-06T06:07:13;1.10;;;1.02;;
9445;SDS011;4761;49.490;10.908;2022-07-06T06:09:38;2.03;;;1.20;;
9445;SDS011;4761;49.490;10.908;2022-07-06T06:12:04;1.23;;;1.00;;
9445;SDS011;4761;49.490;10.908;2022-07-06T06:14:29;1.20;;;1.10;;
9445;SDS011;4761;49.490;10.908;2022-07-06T06:16:55;1.40;;;1.30;;
9445;SDS011;4761;49.490;10.908;2022-07-06T06:19:21;1.10;;;1.00;;
9445;SDS011;4761;49.490;10.908;2022-07-06T06:21:46;1.52;;;1.02;;
9445;SDS011;4761;49.490;10.908;2022-07-06T06:24:12;1.48;;;1.10;;
9445;SDS011;4761;49.490;10.908;2022-07-06T06:26:37;0.93;;;0.93;;
9445;SDS011;4761;49.490;10.908;2022-07-06T06:29:03;1.10;;;0.98;;
9445;SDS011;4761;49.490;10.908;2022-07-06T06:31:28;1.20;;;1.10;;
9445;SDS011;4761;49.490;10.908;2022-07-06T06:33:54;1.10;;;1.00;;
9445;SDS011;4761;49.490;10.908;2022-07-06T06:36:19;1.42;;;1.10;;
9445;SDS011;4761;49.490;10.908;2022-07-06T06:38:45;2.00;;;0.93;;
9445;SDS011;4761;49.490;10.908;2022-07-06T06:41:10;0.90;;;0.80;;
9445;SDS011;4761;49.490;10.908;2022-07-06T06:43:36;1.60;;;0.98;;
9445;SDS011;4761;49.490;10.908;2022-07-06T06:46:03;0.95;;;0.95;;
9445;SDS011;4761;49.490;10.908;2022-07-06T06:48:28;1.27;;;0.90;;
9445;SDS011;4761;49.490;10.908;2022-07-06T06:50:54;0.93;;;0.93;;
9445;SDS011;4761;49.490;10.908;2022-07-06T06:53:19;1.17;;;0.77;;
9445;SDS011;4761;49.490;10.908;2022-07-06T06:55:45;0.80;;;0.80;;
9445;SDS011;4761;49.490;10.908;2022-07-06T06:58:10;0.88;;;0.82;;
9445;SDS011;4761;49.490;10.908;2022-07-06T07:00:36;0.90;;;0.90;;
9445;SDS011;4761;49.490;10.908;2022-07-06T07:03:01;1.17;;;1.08;;
9445;SDS011;4761;49.490;10.908;2022-07-06T07:05:27;1.80;;;0.90;;
9445;SDS011;4761;49.490;10.908;2022-07-06T07:07:52;0.80;;;0.80;;
9445;SDS011;4761;49.490;10.908;2022-07-06T07:10:19;0.90;;;0.90;;
9445;SDS011;4761;49.490;10.908;2022-07-06T07:12:46;1.20;;;1.00;;
9445;SDS011;4761;49.490;10.908;2022-07-06T07:15:13;0.90;;;0.90;;
9445;SDS011;4761;49.490;10.908;2022-07-06T07:17:39;1.63;;;0.80;;
9445;SDS011;4761;49.490;10.908;2022-07-06T07:20:05;1.13;;;0.95;;
9445;SDS011;4761;49.490;10.908;2022-07-06T07:22:32;1.25;;;1.00;;
9445;SDS011;4761;49.490;10.908;2022-07-06T07:24:57;1.35;;;1.00;;
9445;SDS011;4761;49.490;10.908;2022-07-06T07:27:24;1.10;;;0.80;;
9445;SDS011;4761;49.490;10.908;2022-07-06T07:29:50;1.02;;;0.93;;
9445;SDS011;4761;49.490;10.908;2022-07-06T07:32:15;3.63;;;0.85;;
9445;SDS011;4761;49.490;10.908;2022-07-06T07:34:41;1.13;;;0.90;;
9445;SDS011;4761;49.490;10.908;2022-07-06T07:37:07;0.80;;;0.80;;
9445;SDS011;4761;49.490;10.908;2022-07-06T07:39:32;1.50;;;1.00;;
9445;SDS011;4761;49.490;10.908;2022-07-06T07:41:58;1.08;;;0.95;;
9445;SDS011;4761;49.490;10.908;2022-07-06T07:44:23;0.90;;;0.90;;
9445;SDS011;4761;49.490;10.908;2022-07-06T07:46:50;1.05;;;0.90;;
9445;SDS011;4761;49.490;10.908;2022-07-06T07:49:17;1.10;;;0.90;;
9445;SDS011;4761;49.490;10.908;2022-07-06T07:51:44;1.08;;;1.05;;
9445;SDS011;4761;49.490;10.908;2022-07-06T07:54:11;1.02;;;0.93;;
9445;SDS011;4761;49.490;10.908;2022-07-06T07:56:37;0.80;;;0.80;;
9445;SDS011;4761;49.490;10.908;2022-07-06T07:59:05;0.98;;;0.85;;
9445;SDS011;4761;49.490;10.908;2022-07-06T08:01:31;1.00;;;0.90;;
9445;SDS011;4761;49.490;10.908;2022-07-06T08:03:57;1.70;;;0.90;;
9445;SDS011;4761;49.490;10.908;2022-07-06T08:06:23;0.90;;;0.90;;
9445;SDS011;4761;49.490;10.908;2022-07-06T08:08:48;0.90;;;0.90;;
9445;SDS011;4761;49.490;10.908;2022-07-06T08:11:14;0.80;;;0.80;;
9445;SDS011;4761;49.490;10.908;2022-07-06T08:13:40;1.10;;;1.00;;
9445;SDS011;4761;49.490;10.908;2022-07-06T08:16:05;0.85;;;0.85;;
9445;SDS011;4761;49.490;10.908;2022-07-06T08:18:31;1.10;;;1.00;;
9445;SDS011;4761;49.490;10.908;2022-07-06T08:20:56;1.23;;;1.13;;
9445;SDS011;4761;49.490;10.908;2022-07-06T08:23:22;0.93;;;0.80;;
9445;SDS011;4761;49.490;10.908;2022-07-06T08:25:48;1.13;;;1.00;;
9445;SDS011;4761;49.490;10.908;2022-07-06T08:28:14;0.98;;;0.80;;
9445;SDS011;4761;49.490;10.908;2022-07-06T08:30:39;0.80;;;0.80;;
9445;SDS011;4761;49.490;10.908;2022-07-06T08:33:05;0.98;;;0.90;;
9445;SDS011;4761;49.490;10.908;2022-07-06T08:35:30;0.80;;;0.80;;
9445;SDS011;4761;49.490;10.908;2022-07-06T08:37:56;0.80;;;0.80;;
9445;SDS011;4761;49.490;10.908;2022-07-06T08:40:22;0.88;;;0.88;;
9445;SDS011;4761;49.490;10.908;2022-07-06T08:42:49;0.98;;;0.90;;
9445;SDS011;4761;49.490;10.908;2022-07-06T08:45:19;0.80;;;0.80;;
9445;SDS011;4761;49.490;10.908;2022-07-06T08:47:44;1.60;;;0.93;;
9445;SDS011;4761;49.490;10.908;2022-07-06T08:50:13;1.45;;;0.90;;
9445;SDS011;4761;49.490;10.908;2022-07-06T08:52:40;0.98;;;0.90;;
9445;SDS011;4761;49.490;10.908;2022-07-06T08:55:05;0.80;;;0.80;;
9445;SDS011;4761;49.490;10.908;2022-07-06T08:57:34;0.65;;;0.65;;
9445;SDS011;4761;49.490;10.908;2022-07-06T09:00:00;0.80;;;0.80;;
9445;SDS011;4761;49.490;10.908;2022-07-06T09:02:26;0.90;;;0.90;;
9445;SDS011;4761;49.490;10.908;2022-07-06T09:04:53;1.00;;;0.88;;
9445;SDS011;4761;49.490;10.908;2022-07-06T09:07:21;0.90;;;0.90;;
9445;SDS011;4761;49.490;10.908;2022-07-06T09:09:47;1.00;;;0.90;;
9445;SDS011;4761;49.490;10.908;2022-07-06T09:12:14;1.15;;;0.80;;
9445;SDS011;4761;49.490;10.908;2022-07-06T09:14:39;0.80;;;0.80;;
9445;SDS011;4761;49.490;10.908;2022-07-06T09:17:06;0.82;;;0.80;;
9445;SDS011;4761;49.490;10.908;2022-07-06T09:19:32;1.15;;;0.90;;
9445;SDS011;4761;49.490;10.908;2022-07-06T09:21:59;0.75;;;0.75;;
9445;SDS011;4761;49.490;10.908;2022-07-06T09:24:25;0.80;;;0.80;;
9445;SDS011;4761;49.490;10.908;2022-07-06T09:26:53;0.80;;;0.80;;
9445;SDS011;4761;49.490;10.908;2022-07-06T09:29:31;0.70;;;0.70;;
9445;SDS011;4761;49.490;10.908;2022-07-06T09:32:00;0.70;;;0.70;;
9445;SDS011;4761;49.490;10.908;2022-07-06T09:34:44;0.70;;;0.70;;
9445;SDS011;4761;49.490;10.908;2022-07-06T09:37:10;0.90;;;0.90;;
9445;SDS011;4761;49.490;10.908;2022-07-06T09:39:36;1.00;;;0.80;;
9445;SDS011;4761;49.490;10.908;2022-07-06T09:42:03;0.70;;;0.70;;
9445;SDS011;4761;49.490;10.908;2022-07-06T09:44:30;0.80;;;0.80;;
9445;SDS011;4761;49.490;10.908;2022-07-06T09:46:58;2.40;;;0.77;;
9445;SDS011;4761;49.490;10.908;2022-07-06T09:49:25;1.13;;;0.90;;
9445;SDS011;4761;49.490;10.908;2022-07-06T09:51:57;1.10;;;0.80;;
9445;SDS011;4761;49.490;10.908;2022-07-06T09:54:26;0.80;;;0.80;;
9445;SDS011;4761;49.490;10.908;2022-07-06T09:56:53;0.90;;;0.80;;
9445;SDS011;4761;49.490;10.908;2022-07-06T09:59:23;0.80;;;0.80;;
9445;SDS011;4761;49.490;10.908;2022-07-06T10:01:52;0.80;;;0.80;;
9445;SDS011;4761;49.490;10.908;2022-07-06T10:04:19;0.88;;;0.88;;
9445;SDS011;4761;49.490;10.908;2022-07-06T10:06:45;0.68;;;0.60;;
9445;SDS011;4761;49.490;10.908;2022-07-06T10:09:12;0.80;;;0.80;;
9445;SDS011;4761;49.490;10.908;2022-07-06T10:11:39;0.70;;;0.70;;
9445;SDS011;4761;49.490;10.908;2022-07-06T10:14:07;0.77;;;0.77;;
9445;SDS011;4761;49.490;10.908;2022-07-06T10:16:34;0.68;;;0.68;;
9445;SDS011;4761;49.490;10.908;2022-07-06T10:19:04;0.70;;;0.70;;
9445;SDS011;4761;49.490;10.908;2022-07-06T10:21:31;0.60;;;0.60;;
9445;SDS011;4761;49.490;10.908;2022-07-06T10:24:01;0.68;;;0.50;;
9445;SDS011;4761;49.490;10.908;2022-07-06T10:26:28;0.70;;;0.70;;
9445;SDS011;4761;49.490;10.908;2022-07-06T10:28:54;0.65;;;0.60;;
9445;SDS011;4761;49.490;10.908;2022-07-06T10:31:20;0.60;;;0.60;;
9445;SDS011;4761;49.490;10.908;2022-07-06T10:33:47;0.80;;;0.80;;
9445;SDS011;4761;49.490;10.908;2022-07-06T10:36:13;0.77;;;0.75;;
9445;SDS011;4761;49.490;10.908;2022-07-06T10:38:40;0.65;;;0.65;;
9445;SDS011;4761;49.490;10.908;2022-07-06T10:41:06;0.80;;;0.80;;
9445;SDS011;4761;49.490;10.908;2022-07-06T10:43:37;0.85;;;0.85;;
9445;SDS011;4761;49.490;10.908;2022-07-06T10:46:10;0.63;;;0.63;;
9445;SDS011;4761;49.490;10.908;2022-07-06T10:48:44;0.70;;;0.70;;
9445;SDS011;4761;49.490;10.908;2022-07-06T10:51:11;0.70;;;0.70;;
9445;SDS011;4761;49.490;10.908;2022-07-06T10:53:39;0.70;;;0.70;;
9445;SDS011;4761;49.490;10.908;2022-07-06T10:56:09;0.70;;;0.70;;
9445;SDS011;4761;49.490;10.908;2022-07-06T10:58:37;0.70;;;0.70;;
9445;SDS011;4761;49.490;10.908;2022-07-06T11:01:17;0.70;;;0.60;;
9445;SDS011;4761;49.490;10.908;2022-07-06T11:03:44;0.98;;;0.80;;
9445;SDS011;4761;49.490;10.908;2022-07-06T11:06:16;0.75;;;0.75;;
9445;SDS011;4761;49.490;10.908;2022-07-06T11:08:46;0.68;;;0.68;;
9445;SDS011;4761;49.490;10.908;2022-07-06T11:13:47;0.70;;;0.70;;
9445;SDS011;4761;49.490;10.908;2022-07-06T11:16:15;0.80;;;0.80;;
9445;SDS011;4761;49.490;10.908;2022-07-06T11:18:42;0.60;;;0.60;;
9445;SDS011;4761;49.490;10.908;2022-07-06T11:21:15;0.68;;;0.68;;
9445;SDS011;4761;49.490;10.908;2022-07-06T11:23:42;0.70;;;0.70;;
9445;SDS011;4761;49.490;10.908;2022-07-06T11:26:10;0.50;;;0.50;;
9445;SDS011;4761;49.490;10.908;2022-07-06T11:28:37;0.63;;;0.63;;
9445;SDS011;4761;49.490;10.908;2022-07-06T11:31:03;0.60;;;0.60;;
9445;SDS011;4761;49.490;10.908;2022-07-06T11:33:29;0.60;;;0.60;;
9445;SDS011;4761;49.490;10.908;2022-07-06T11:38:40;0.50;;;0.50;;
9445;SDS011;4761;49.490;10.908;2022-07-06T11:41:07;0.70;;;0.70;;
9445;SDS011;4761;49.490;10.908;2022-07-06T11:43:33;0.88;;;0.65;;
9445;SDS011;4761;49.490;10.908;2022-07-06T11:45:59;0.70;;;0.70;;
9445;SDS011;4761;49.490;10.908;2022-07-06T11:48:25;0.60;;;0.60;;
9445;SDS011;4761;49.490;10.908;2022-07-06T11:50:57;0.80;;;0.73;;
9445;SDS011;4761;49.490;10.908;2022-07-06T11:53:26;0.60;;;0.60;;
9445;SDS011;4761;49.490;10.908;2022-07-06T11:55:52;0.80;;;0.80;;
9445;SDS011;4761;49.490;10.908;2022-07-06T11:58:20;1.40;;;0.80;;
9445;SDS011;4761;49.490;10.908;2022-07-06T12:03:42;1.00;;;0.85;;
9445;SDS011;4761;49.490;10.908;2022-07-06T12:06:21;0.57;;;0.55;;
9445;SDS011;4761;49.490;10.908;2022-07-06T12:11:21;0.57;;;0.57;;
9445;SDS011;4761;49.490;10.908;2022-07-06T12:13:58;0.80;;;0.80;;
9445;SDS011;4761;49.490;10.908;2022-07-06T12:16:30;1.25;;;0.77;;
9445;SDS011;4761;49.490;10.908;2022-07-06T12:18:59;0.70;;;0.70;;
9445;SDS011;4761;49.490;10.908;2022-07-06T12:21:27;0.63;;;0.63;;
9445;SDS011;4761;49.490;10.908;2022-07-06T12:23:53;0.90;;;0.60;;
9445;SDS011;4761;49.490;10.908;2022-07-06T12:26:20;1.15;;;0.80;;
9445;SDS011;4761;49.490;10.908;2022-07-06T12:29:00;0.90;;;0.70;;
9445;SDS011;4761;49.490;10.908;2022-07-06T12:34:02;0.60;;;0.60;;
9445;SDS011;4761;49.490;10.908;2022-07-06T12:36:29;1.38;;;0.75;;
9445;SDS011;4761;49.490;10.908;2022-07-06T12:38:55;0.70;;;0.70;;
9445;SDS011;4761;49.490;10.908;2022-07-06T12:41:32;1.17;;;0.80;;
9445;SDS011;4761;49.490;10.908;2022-07-06T12:44:08;0.77;;;0.77;;
9445;SDS011;4761;49.490;10.908;2022-07-06T12:46:41;5.40;;;1.08;;
9445;SDS011;4761;49.490;10.908;2022-07-06T12:49:25;2.63;;;1.20;;
9445;SDS011;4761;49.490;10.908;2022-07-06T12:54:24;3.33;;;0.98;;
9445;SDS011;4761;49.490;10.908;2022-07-06T12:56:55;5.78;;;1.20;;
9445;SDS011;4761;49.490;10.908;2022-07-06T12:59:41;2.00;;;1.05;;
9445;SDS011;4761;49.490;10.908;2022-07-06T13:02:16;3.00;;;1.10;;
9445;SDS011;4761;49.490;10.908;2022-07-06T13:04:43;2.42;;;1.00;;
9445;SDS011;4761;49.490;10.908;2022-07-06T13:07:18;1.55;;;1.00;;
9445;SDS011;4761;49.490;10.908;2022-07-06T13:09:44;1.13;;;0.90;;
9445;SDS011;4761;49.490;10.908;2022-07-06T13:12:10;4.43;;;0.85;;
9445;SDS011;4761;49.490;10.908;2022-07-06T13:14:36;1.80;;;1.15;;
9445;SDS011;4761;49.490;10.908;2022-07-06T13:17:01;1.95;;;0.80;;
9445;SDS011;4761;49.490;10.908;2022-07-06T13:19:27;4.03;;;1.10;;
9445;SDS011;4761;49.490;10.908;2022-07-06T13:21:53;3.00;;;1.20;;
9445;SDS011;4761;49.490;10.908;2022-07-06T13:24:18;3.85;;;1.30;;
9445;SDS011;4761;49.490;10.908;2022-07-06T13:26:44;1.10;;;0.90;;
9445;SDS011;4761;49.490;10.908;2022-07-06T13:29:11;1.48;;;0.90;;
9445;SDS011;4761;49.490;10.908;2022-07-06T13:31:37;1.50;;;0.90;;
9445;SDS011;4761;49.490;10.908;2022-07-06T13:34:04;1.45;;;0.90;;
9445;SDS011;4761;49.490;10.908;2022-07-06T13:36:31;1.23;;;0.95;;
9445;SDS011;4761;49.490;10.908;2022-07-06T13:38:57;1.33;;;0.93;;
9445;SDS011;4761;49.490;10.908;2022-07-06T13:41:22;1.23;;;0.90;;
9445;SDS011;4761;49.490;10.908;2022-07-06T13:43:48;1.30;;;0.90;;
9445;SDS011;4761;49.490;10.908;2022-07-06T13:46:13;2.08;;;0.90;;
9445;SDS011;4761;49.490;10.908;2022-07-06T13:48:41;2.72;;;1.05;;
9445;SDS011;4761;49.490;10.908;2022-07-06T13:51:07;1.65;;;1.00;;
9445;SDS011;4761;49.490;10.908;2022-07-06T13:53:32;2.63;;;0.95;;
9445;SDS011;4761;49.490;10.908;2022-07-06T13:55:58;3.13;;;1.02;;
9445;SDS011;4761;49.490;10.908;2022-07-06T13:58:24;1.42;;;0.98;;
9445;SDS011;4761;49.490;10.908;2022-07-06T14:00:49;1.42;;;0.85;;
9445;SDS011;4761;49.490;10.908;2022-07-06T14:03:15;1.85;;;1.05;;
9445;SDS011;4761;49.490;10.908;2022-07-06T14:05:40;2.38;;;0.90;;
9445;SDS011;4761;49.490;10.908;2022-07-06T14:08:06;1.55;;;0.90;;
9445;SDS011;4761;49.490;10.908;2022-07-06T14:10:32;1.40;;;0.80;;
9445;SDS011;4761;49.490;10.908;2022-07-06T14:12:57;0.90;;;0.90;;
9445;SDS011;4761;49.490;10.908;2022-07-06T14:15:23;1.40;;;0.70;;
9445;SDS011;4761;49.490;10.908;2022-07-06T14:17:48;0.93;;;0.90;;
9445;SDS011;4761;49.490;10.908;2022-07-06T14:20:14;1.67;;;1.00;;
9445;SDS011;4761;49.490;10.908;2022-07-06T14:22:40;1.73;;;1.00;;
9445;SDS011;4761;49.490;10.908;2022-07-06T14:25:06;1.45;;;0.70;;
9445;SDS011;4761;49.490;10.908;2022-07-06T14:27:33;3.83;;;0.90;;
9445;SDS011;4761;49.490;10.908;2022-07-06T14:29:59;1.80;;;0.85;;
9445;SDS011;4761;49.490;10.908;2022-07-06T14:32:25;1.30;;;1.05;;
9445;SDS011;4761;49.490;10.908;2022-07-06T14:34:50;2.05;;;0.80;;
9445;SDS011;4761;49.490;10.908;2022-07-06T14:37:16;2.15;;;0.90;;
9445;SDS011;4761;49.490;10.908;2022-07-06T14:39:42;2.50;;;1.63;;
9445;SDS011;4761;49.490;10.908;2022-07-06T14:42:08;2.90;;;1.75;;
9445;SDS011;4761;49.490;10.908;2022-07-06T14:44:34;3.65;;;1.42;;
9445;SDS011;4761;49.490;10.908;2022-07-06T14:47:00;2.78;;;1.30;;
9445;SDS011;4761;49.490;10.908;2022-07-06T14:49:25;1.58;;;1.10;;
9445;SDS011;4761;49.490;10.908;2022-07-06T14:51:51;2.97;;;1.50;;
9445;SDS011;4761;49.490;10.908;2022-07-06T14:54:16;3.00;;;1.60;;
9445;SDS011;4761;49.490;10.908;2022-07-06T14:56:42;4.43;;;1.77;;
9445;SDS011;4761;49.490;10.908;2022-07-06T14:59:08;4.47;;;1.40;;
9445;SDS011;4761;49.490;10.908;2022-07-06T15:01:33;2.25;;;1.50;;
9445;SDS011;4761;49.490;10.908;2022-07-06T15:03:59;2.45;;;1.30;;
9445;SDS011;4761;49.490;10.908;2022-07-06T15:06:24;1.40;;;1.27;;
9445;SDS011;4761;49.490;10.908;2022-07-06T15:08:50;1.70;;;1.35;;
9445;SDS011;4761;49.490;10.908;2022-07-06T15:11:16;1.67;;;1.55;;
9445;SDS011;4761;49.490;10.908;2022-07-06T15:13:41;1.98;;;1.58;;